Carnegie, Oklahoma
Current Conditions -  °F | °C
As of 1:53 PM on Thursday 23 Oct 2014 (Local Time) from KHBR Reporting Station
Clear Clear  
Wind Chill: 75°   Ceiling: Unl
Heat Index: 75°   Visibility: 10mi
Dew Point: 60°   Wind: 15mph
Humidity: 60%   Direction: 220°SW
Pressure: 30.09"   Gusts: 22mph
Location:  35.1°N, 98.6°W
Report Text: KHBR 231853Z AUTO 22013G19KT 10SM CLR 24/16 A3009 RMK AO2 SLP175 T02390156
Loading
Personal Weather Stations






























Interactive Weather Map
Tropical Storm Tracking
New forecast layout! Learn more

10-Day Weather Forecast

Advertisements
Track Severe Weather on mobile